Главная страница
METAR-TAF:

METAR-TAF

Аэропорты :

Pittsburgh International Airport

Питтсбург, Пенсильвания, США

широта: 40-30-14N, долгота: 080-15-59W, высота над уровнем моря: 366 м

Текущие метеонаблюдения

Эта сводка был подготовлена 29 минут назад, в 22:51 UTC
Ветер 5 Узел от северный
Температура 1°C
Влажность 59%
Давление 1022 hPa
Видимость: 16.1 км
небольшая облачность на высоте 25000 фута

METAR: KPIT 182251Z 36005KT 10SM FEW250 01/M06 A3017 RMK AO2 SLP236 T00061061

Время: 18:20 (23:20 UTC)

Прогноз

Эта сводка был подготовлена 2 часа и 21 минут назад, в 20:59 UTC
Прогноз действительный с 18-го 21 UTC до 19-го 24 UTC
Ветер 4 Узел переменных направлений
Видимость: 10 км
Отдельные облака на высоте 25000 фута

TAF: KPIT 182059Z 1821/1924 VRB04KT P6SM SCT250

Метеонаблюдения и прогнозы для более 4000 аэропортов (сводки METAR и TAF).

Имеющиеся станции представлены на карте желтыми и красными точками.

Чтобы увидеть название станции, наведите на нее мышь.

Затем щелкните, чтобы увидеть метеонаблюдения и метеопрогнозы.

Управление картой: чтобы увеличить масштаб, щелкните зеленые кнопки с черным крестиком; чтобы уменьшить масштаб, щелкните зеленую кнопку с тире; для просмотра соседних карт щелкайте зеленые стрелки.


METAR-TAF: